Time;durP1;ratioP1;P1;durP2;ratioP2;P2;SDS_P1;SDS_P2;PMS_P1;PMS_P2;Temp;Humidity;BMP_temperature;BMP_pressure;BME280_temperature;BME280_humidity;BME280_pressure;Samples;Min_cycle;Max_cycle;Signal;HPM_P1;HPM_P2
2021/11/20 00:00:43;;;;;;;31.00;18.90;;;;;;;;;;5038164;28;20356;-90
2021/11/20 00:03:10;;;;;;;29.42;18.58;;;;;;;;;;5038007;28;20112;-89
2021/11/20 00:08:42;;;;;;;30.50;17.63;;;;;;;;;;5025978;28;20442;-89
2021/11/20 00:11:10;;;;;;;31.58;19.45;;;;;;;;;;5037727;28;20029;-89
2021/11/20 00:13:36;;;;;;;27.38;17.60;;;;;;;;;;5036968;28;20043;-89
2021/11/20 00:16:04;;;;;;;29.77;18.20;;;;;;;;;;5038122;28;20036;-89
2021/11/20 00:24:50;;;;;;;28.23;17.90;;;;;;;;;;5037420;28;20438;-88
2021/11/20 00:27:21;;;;;;;30.13;17.88;;;;;;;;;;5036569;28;20030;-88
2021/11/20 00:30:13;;;;;;;28.33;17.27;;;;;;;;;;5036594;28;20030;-88
2021/11/20 00:32:40;;;;;;;32.78;18.17;;;;;;;;;;5037595;28;20304;-87
2021/11/20 00:35:08;;;;;;;27.98;17.80;;;;;;;;;;5038609;28;20060;-87
2021/11/20 00:37:34;;;;;;;29.77;18.55;;;;;;;;;;5041571;28;20037;-87
2021/11/20 00:40:01;;;;;;;27.52;17.75;;;;;;;;;;5040714;28;20036;-87
2021/11/20 00:42:27;;;;;;;25.88;16.95;;;;;;;;;;5040543;28;20124;-89
2021/11/20 00:44:53;;;;;;;31.10;18.20;;;;;;;;;;5041525;28;20022;-89
2021/11/20 00:47:19;;;;;;;26.77;17.23;;;;;;;;;;5040481;28;20029;-89
2021/11/20 00:49:46;;;;;;;30.58;18.40;;;;;;;;;;5040584;28;20057;-90
2021/11/20 00:52:12;;;;;;;27.45;17.05;;;;;;;;;;5041195;28;20372;-88
2021/11/20 00:54:39;;;;;;;30.85;18.13;;;;;;;;;;5040378;28;20053;-89
2021/11/20 00:57:06;;;;;;;32.92;18.38;;;;;;;;;;5040291;28;20116;-89
2021/11/20 00:59:32;;;;;;;27.42;17.42;;;;;;;;;;5041197;28;20355;-90
2021/11/20 01:02:00;;;;;;;27.00;17.25;;;;;;;;;;5040853;28;20032;-92
2021/11/20 01:04:27;;;;;;;28.85;17.52;;;;;;;;;;5041052;28;20064;-91
2021/11/20 01:06:54;;;;;;;31.45;18.25;;;;;;;;;;5041008;28;20404;-91
2021/11/20 01:09:23;;;;;;;29.63;17.38;;;;;;;;;;5040808;28;20044;-90
2021/11/20 01:11:51;;;;;;;30.13;17.77;;;;;;;;;;5040130;28;20026;-91
2021/11/20 01:14:18;;;;;;;27.83;17.58;;;;;;;;;;5040182;28;20419;-90
2021/11/20 01:16:45;;;;;;;31.23;17.80;;;;;;;;;;5040095;28;20163;-91
2021/11/20 01:19:12;;;;;;;28.05;16.30;;;;;;;;;;5040378;28;20036;-90
2021/11/20 01:21:38;;;;;;;27.58;17.15;;;;;;;;;;5040704;28;20032;-90
2021/11/20 01:24:05;;;;;;;24.85;16.55;;;;;;;;;;5039778;28;20164;-89
2021/11/20 01:26:32;;;;;;;26.08;16.63;;;;;;;;;;5039855;28;20035;-88
2021/11/20 01:28:58;;;;;;;25.98;15.93;;;;;;;;;;5039638;28;20454;-88
2021/11/20 01:31:26;;;;;;;23.45;16.13;;;;;;;;;;5040617;28;20026;-89
2021/11/20 01:33:52;;;;;;;28.45;16.17;;;;;;;;;;5039913;28;20021;-89
2021/11/20 01:36:21;;;;;;;23.63;15.60;;;;;;;;;;5039733;28;20071;-88
2021/11/20 01:38:48;;;;;;;28.00;18.52;;;;;;;;;;5040506;28;20117;-88
2021/11/20 01:41:15;;;;;;;27.73;17.85;;;;;;;;;;5040717;28;20060;-88
2021/11/20 01:43:41;;;;;;;29.08;17.15;;;;;;;;;;5040551;28;20045;-89
2021/11/20 01:46:12;;;;;;;26.08;16.67;;;;;;;;;;5040336;28;20105;-89
2021/11/20 01:48:51;;;;;;;24.80;16.00;;;;;;;;;;5039466;28;20017;-89
2021/11/20 01:54:20;;;;;;;22.88;14.98;;;;;;;;;;5040465;28;20031;-88
2021/11/20 01:56:53;;;;;;;24.95;15.60;;;;;;;;;;5040533;28;20037;-88
2021/11/20 01:59:18;;;;;;;;;;;;;;;;;;5039575;28;20026;-88
2021/11/20 02:01:48;;;;;;;23.67;15.02;;;;;;;;;;5040059;28;19951;-88
2021/11/20 02:04:27;;;;;;;24.75;14.75;;;;;;;;;;5040329;28;20028;-88
2021/11/20 02:07:00;;;;;;;22.45;14.20;;;;;;;;;;5038967;28;20029;-87
2021/11/20 02:09:29;;;;;;;20.70;13.20;;;;;;;;;;5039865;28;20045;-87
2021/11/20 02:12:00;;;;;;;19.83;13.48;;;;;;;;;;5039917;28;20017;-88
2021/11/20 02:14:27;;;;;;;23.27;13.40;;;;;;;;;;5039122;28;20037;-88
2021/11/20 02:16:58;;;;;;;22.65;13.32;;;;;;;;;;5039144;28;20033;-89
2021/11/20 02:19:27;;;;;;;20.43;13.20;;;;;;;;;;5038869;28;20112;-88
2021/11/20 02:21:53;;;;;;;20.70;13.20;;;;;;;;;;5038732;28;20063;-89
2021/11/20 02:24:19;;;;;;;20.05;13.40;;;;;;;;;;5038547;28;20072;-88
2021/11/20 02:26:45;;;;;;;18.05;12.07;;;;;;;;;;5039639;28;20021;-90
2021/11/20 02:29:12;;;;;;;20.83;12.40;;;;;;;;;;5038617;28;20112;-88
2021/11/20 02:31:41;;;;;;;19.02;12.23;;;;;;;;;;5039808;28;20095;-88
2021/11/20 02:34:07;;;;;;;18.73;11.93;;;;;;;;;;5039477;28;20029;-89
2021/11/20 02:36:33;;;;;;;19.15;13.40;;;;;;;;;;5039822;28;20068;-88
2021/11/20 02:39:01;;;;;;;20.48;12.52;;;;;;;;;;5038460;28;20064;-87
2021/11/20 02:41:28;;;;;;;18.73;12.05;;;;;;;;;;5039321;28;20025;-89
2021/11/20 02:43:56;;;;;;;21.27;12.68;;;;;;;;;;5039456;28;20034;-88
2021/11/20 02:46:23;;;;;;;20.08;12.98;;;;;;;;;;5038436;28;20029;-88
2021/11/20 02:48:49;;;;;;;21.30;13.10;;;;;;;;;;5038523;28;20116;-88
2021/11/20 02:51:17;;;;;;;20.90;12.63;;;;;;;;;;5038221;28;20050;-89
2021/11/20 02:53:48;;;;;;;22.17;12.88;;;;;;;;;;5039308;28;20028;-88
2021/11/20 02:56:16;;;;;;;20.48;13.13;;;;;;;;;;5039136;28;20117;-88
2021/11/20 02:58:42;;;;;;;19.40;12.27;;;;;;;;;;5037765;28;20026;-90
2021/11/20 03:01:13;;;;;;;16.33;11.45;;;;;;;;;;5038964;28;20057;-91
2021/11/20 03:03:41;;;;;;;17.50;12.25;;;;;;;;;;5039014;28;20056;-89
2021/11/20 03:06:07;;;;;;;18.50;11.77;;;;;;;;;;5038811;28;20022;-89
2021/11/20 03:08:34;;;;;;;17.40;11.85;;;;;;;;;;5037830;28;20088;-89
2021/11/20 03:11:00;;;;;;;19.77;12.15;;;;;;;;;;5038752;28;20442;-89
2021/11/20 03:13:27;;;;;;;17.10;11.35;;;;;;;;;;5037826;28;20121;-89
2021/11/20 03:15:53;;;;;;;17.83;11.63;;;;;;;;;;5038697;28;20033;-91
2021/11/20 03:18:19;;;;;;;19.40;11.82;;;;;;;;;;5039126;28;20025;-90
2021/11/20 03:20:46;;;;;;;18.45;11.80;;;;;;;;;;5038915;28;20112;-90
2021/11/20 03:23:15;;;;;;;20.95;12.38;;;;;;;;;;5038723;28;20033;-91
2021/11/20 03:25:41;;;;;;;19.45;12.77;;;;;;;;;;5038526;28;20026;-90
2021/11/20 03:28:07;;;;;;;17.92;11.98;;;;;;;;;;5036839;28;20030;-90
2021/11/20 03:30:33;;;;;;;18.23;11.40;;;;;;;;;;5038658;28;20028;-90
2021/11/20 03:32:59;;;;;;;18.77;12.18;;;;;;;;;;5037813;28;20044;-90
2021/11/20 03:35:26;;;;;;;21.25;13.00;;;;;;;;;;5037142;28;20044;-91
2021/11/20 03:37:52;;;;;;;20.63;12.38;;;;;;;;;;5037511;28;20400;-91
2021/11/20 03:40:19;;;;;;;18.73;12.50;;;;;;;;;;5037401;28;20033;-89
2021/11/20 03:42:45;;;;;;;17.77;12.18;;;;;;;;;;5037523;28;20037;-90
2021/11/20 03:45:12;;;;;;;20.02;12.05;;;;;;;;;;5038442;28;20028;-89
2021/11/20 03:47:38;;;;;;;19.23;11.57;;;;;;;;;;5037230;28;20025;-89
2021/11/20 03:50:05;;;;;;;18.92;12.40;;;;;;;;;;5038339;28;20022;-87
2021/11/20 03:52:31;;;;;;;23.48;13.70;;;;;;;;;;5038053;28;20028;-88
2021/11/20 03:54:57;;;;;;;16.65;12.43;;;;;;;;;;5038142;28;20036;-87
2021/11/20 03:57:23;;;;;;;18.45;12.75;;;;;;;;;;5038262;28;20025;-88
2021/11/20 03:59:50;;;;;;;19.70;13.00;;;;;;;;;;5037987;28;20409;-87
2021/11/20 04:02:16;;;;;;;23.35;14.23;;;;;;;;;;5037856;28;20108;-87
2021/11/20 04:04:42;;;;;;;19.73;13.18;;;;;;;;;;5037746;28;20025;-88
2021/11/20 04:07:08;;;;;;;24.67;14.60;;;;;;;;;;5038087;28;20030;-87
2021/11/20 04:09:34;;;;;;;21.52;13.45;;;;;;;;;;5035938;28;20042;-87
2021/11/20 04:12:00;;;;;;;26.73;17.48;;;;;;;;;;5036749;28;20029;-88
2021/11/20 04:14:27;;;;;;;20.55;14.07;;;;;;;;;;5037758;28;20080;-89
2021/11/20 04:16:54;;;;;;;18.92;13.38;;;;;;;;;;5037967;28;20021;-89
2021/11/20 04:19:20;;;;;;;18.35;12.63;;;;;;;;;;5037791;28;20032;-89
2021/11/20 04:25:27;;;;;;;18.75;12.63;;;;;;;;;;5037774;28;20450;-88
2021/11/20 04:27:53;;;;;;;17.48;12.23;;;;;;;;;;5036842;28;20061;-89
2021/11/20 04:30:21;;;;;;;17.67;11.57;;;;;;;;;;5036955;28;20044;-87
2021/11/20 04:32:47;;;;;;;18.67;11.60;;;;;;;;;;5036598;28;20034;-87
2021/11/20 04:35:14;;;;;;;17.67;11.13;;;;;;;;;;5037443;28;20028;-87
2021/11/20 04:37:40;;;;;;;18.98;12.57;;;;;;;;;;5037563;28;20112;-88
2021/11/20 04:40:07;;;;;;;17.35;11.77;;;;;;;;;;5037535;28;20056;-88
2021/11/20 04:42:33;;;;;;;17.90;12.52;;;;;;;;;;5037399;28;20500;-87
2021/11/20 04:44:59;;;;;;;16.90;11.45;;;;;;;;;;5037760;28;20025;-88
2021/11/20 04:47:25;;;;;;;17.75;11.90;;;;;;;;;;5037122;28;20040;-86
2021/11/20 04:52:54;;;;;;;19.00;12.88;;;;;;;;;;5037205;28;20076;-88
2021/11/20 04:55:21;;;;;;;17.55;12.02;;;;;;;;;;5036922;28;20400;-88
2021/11/20 04:57:47;;;;;;;19.95;13.00;;;;;;;;;;5037201;28;20121;-89
2021/11/20 05:00:16;;;;;;;20.08;12.82;;;;;;;;;;5036499;28;20061;-88
2021/11/20 05:02:43;;;;;;;15.10;11.20;;;;;;;;;;5037331;28;20029;-89
2021/11/20 05:08:12;;;;;;;19.50;13.38;;;;;;;;;;5017367;28;20028;-89
2021/11/20 05:10:39;;;;;;;18.63;12.25;;;;;;;;;;5016362;28;20030;-89
2021/11/20 05:13:05;;;;;;;21.80;13.05;;;;;;;;;;5017581;28;20109;-89
2021/11/20 05:15:32;;;;;;;22.67;14.32;;;;;;;;;;5017675;28;20049;-88
2021/11/20 05:17:58;;;;;;;21.20;13.65;;;;;;;;;;5027658;28;20047;-90
2021/11/20 05:21:01;;;;;;;19.10;12.95;;;;;;;;;;5037433;28;20025;-90
2021/11/20 05:23:29;;;;;;;18.58;12.57;;;;;;;;;;5040031;28;20076;-89
2021/11/20 05:25:55;;;;;;;19.50;13.48;;;;;;;;;;5041019;28;20043;-90
2021/11/20 05:28:22;;;;;;;23.55;14.43;;;;;;;;;;5040800;28;20021;-89
2021/11/20 05:30:48;;;;;;;27.85;14.55;;;;;;;;;;5039740;28;20029;-89
2021/11/20 05:33:18;;;;;;;19.50;14.30;;;;;;;;;;5039822;28;20037;-90
2021/11/20 05:36:04;;;;;;;23.33;14.00;;;;;;;;;;5040514;28;20033;-91
2021/11/20 05:38:30;;;;;;;19.08;13.30;;;;;;;;;;5039595;28;20072;-90
2021/11/20 05:40:56;;;;;;;19.73;12.90;;;;;;;;;;5039304;28;20328;-92
2021/11/20 05:43:23;;;;;;;16.55;12.00;;;;;;;;;;5039667;28;20400;-92
2021/11/20 05:45:51;;;;;;;20.08;13.10;;;;;;;;;;5040481;28;20122;-92
2021/11/20 05:48:17;;;;;;;15.93;11.50;;;;;;;;;;5039334;28;20043;-91
2021/11/20 05:51:02;;;;;;;17.85;12.43;;;;;;;;;;5040299;28;20036;-91
2021/11/20 05:53:28;;;;;;;23.23;15.10;;;;;;;;;;5039868;28;20057;-90
2021/11/20 05:55:55;;;;;;;25.13;16.42;;;;;;;;;;5040098;28;20032;-91
2021/11/20 05:58:22;;;;;;;22.65;14.20;;;;;;;;;;5040343;28;20022;-91
2021/11/20 06:00:52;;;;;;;17.80;11.95;;;;;;;;;;5040039;28;20025;-88
2021/11/20 06:03:20;;;;;;;12.70;9.80;;;;;;;;;;5039886;28;20026;-88
2021/11/20 06:06:23;;;;;;;12.48;8.70;;;;;;;;;;5039043;28;20072;-89
2021/11/20 06:08:49;;;;;;;12.18;8.60;;;;;;;;;;5035448;28;20164;-88
2021/11/20 06:11:18;;;;;;;11.43;8.55;;;;;;;;;;5034420;28;20431;-88
2021/11/20 06:13:44;;;;;;;12.05;9.07;;;;;;;;;;5040176;28;20049;-87
2021/11/20 06:16:10;;;;;;;11.93;8.88;;;;;;;;;;5039782;28;20034;-88
2021/11/20 06:18:36;;;;;;;13.52;8.75;;;;;;;;;;5039850;28;20040;-89
2021/11/20 06:24:06;;;;;;;12.75;9.50;;;;;;;;;;5039786;28;20083;-89
2021/11/20 06:26:34;;;;;;;15.40;9.15;;;;;;;;;;5039760;28;20044;-89
2021/11/20 06:29:00;;;;;;;16.10;10.80;;;;;;;;;;5039752;28;20029;-88
2021/11/20 06:31:26;;;;;;;19.67;12.15;;;;;;;;;;5038429;28;20033;-88
2021/11/20 06:33:53;;;;;;;25.10;15.50;;;;;;;;;;5037647;28;20406;-89
2021/11/20 06:39:50;;;;;;;33.70;18.13;;;;;;;;;;5039574;28;20029;-90
2021/11/20 06:42:16;;;;;;;38.28;18.02;;;;;;;;;;5038902;28;20067;-90
2021/11/20 06:44:42;;;;;;;32.47;17.08;;;;;;;;;;5038347;28;20041;-87
2021/11/20 06:47:08;;;;;;;31.27;17.30;;;;;;;;;;5039234;28;20124;-87
2021/11/20 06:49:36;;;;;;;26.08;16.92;;;;;;;;;;5038814;28;20053;-89
2021/11/20 06:52:39;;;;;;;37.30;20.90;;;;;;;;;;5038990;28;20415;-89
2021/11/20 06:55:06;;;;;;;35.63;21.02;;;;;;;;;;5038767;28;20036;-89
2021/11/20 07:00:27;;;;;;;37.38;22.33;;;;;;;;;;5037049;28;20037;-87
2021/11/20 07:02:56;;;;;;;112.03;40.47;;;;;;;;;;5020573;28;20432;-87
2021/11/20 07:05:22;;;;;;;46.83;24.73;;;;;;;;;;5037788;28;20030;-94
2021/11/20 07:10:52;;;;;;;83.35;27.75;;;;;;;;;;5022162;28;20332;-94
2021/11/20 07:13:20;;;;;;;51.53;23.77;;;;;;;;;;5020691;28;20033;-95
2021/11/20 07:15:46;;;;;;;29.17;18.45;;;;;;;;;;5037303;28;20033;-94
2021/11/20 07:18:13;;;;;;;24.13;16.13;;;;;;;;;;5037195;28;20176;-95
2021/11/20 07:20:40;;;;;;;23.75;15.05;;;;;;;;;;5037119;28;20036;-93
2021/11/20 07:23:06;;;;;;;24.38;16.13;;;;;;;;;;5036981;28;20056;-93
2021/11/20 07:25:33;;;;;;;20.25;13.88;;;;;;;;;;5037004;28;20049;-95
2021/11/20 07:27:59;;;;;;;20.17;13.02;;;;;;;;;;5037087;28;20021;-94
2021/11/20 07:30:27;;;;;;;24.08;13.57;;;;;;;;;;5020384;28;20084;-94
2021/11/20 07:32:53;;;;;;;21.30;14.38;;;;;;;;;;5020400;28;20025;-94
2021/11/20 07:35:27;;;;;;;19.67;13.85;;;;;;;;;;5019745;28;20064;-94
2021/11/20 07:41:31;;;;;;;17.17;11.52;;;;;;;;;;5038716;28;20406;-95
2021/11/20 07:43:57;;;;;;;16.30;11.32;;;;;;;;;;5037962;28;20033;-94
2021/11/20 07:46:24;;;;;;;19.05;12.20;;;;;;;;;;5038315;28;20025;-93
2021/11/20 07:48:50;;;;;;;19.10;12.57;;;;;;;;;;5037464;28;20026;-93
2021/11/20 07:51:17;;;;;;;17.00;11.57;;;;;;;;;;5038085;28;20427;-93
2021/11/20 07:53:44;;;;;;;18.27;12.02;;;;;;;;;;5037119;28;20048;-95
2021/11/20 07:56:10;;;;;;;18.33;12.35;;;;;;;;;;5037578;28;20021;-93
2021/11/20 07:58:37;;;;;;;22.30;12.77;;;;;;;;;;5037931;28;20033;-94
2021/11/20 08:01:04;;;;;;;25.65;14.25;;;;;;;;;;5037143;28;20029;-94
2021/11/20 08:03:30;;;;;;;26.33;14.82;;;;;;;;;;5036878;28;20026;-93
2021/11/20 08:05:57;;;;;;;28.30;17.02;;;;;;;;;;5038954;28;20060;-92
2021/11/20 08:08:23;;;;;;;35.33;17.23;;;;;;;;;;5037064;28;20025;-93
2021/11/20 08:10:49;;;;;;;44.10;18.17;;;;;;;;;;5036758;28;20041;-92
2021/11/20 08:13:16;;;;;;;33.35;16.83;;;;;;;;;;5037745;28;20025;-93
2021/11/20 08:15:42;;;;;;;41.55;19.45;;;;;;;;;;5037859;28;20040;-95
2021/11/20 08:18:08;;;;;;;38.70;18.40;;;;;;;;;;5036914;28;20029;-93
2021/11/20 08:20:36;;;;;;;30.88;18.35;;;;;;;;;;5037190;28;20332;-92
2021/11/20 08:23:03;;;;;;;31.67;18.75;;;;;;;;;;5036725;28;20144;-92
2021/11/20 08:25:29;;;;;;;44.55;23.92;;;;;;;;;;5037652;28;20404;-92
2021/11/20 08:27:56;;;;;;;50.08;23.35;;;;;;;;;;5037927;28;20355;-95
2021/11/20 08:30:24;;;;;;;42.50;22.23;;;;;;;;;;5037030;28;20042;-94
2021/11/20 08:32:50;;;;;;;55.38;27.10;;;;;;;;;;5037778;28;20026;-93
2021/11/20 08:35:17;;;;;;;64.95;30.50;;;;;;;;;;5036555;28;20128;-93
2021/11/20 08:38:03;;;;;;;42.33;21.48;;;;;;;;;;5037876;28;20308;-91
2021/11/20 08:40:31;;;;;;;65.90;28.38;;;;;;;;;;5036336;28;20132;-94
2021/11/20 08:42:58;;;;;;;32.55;16.90;;;;;;;;;;5037468;28;20048;-93
2021/11/20 08:45:25;;;;;;;31.50;16.20;;;;;;;;;;5036856;28;20036;-93
2021/11/20 08:47:53;;;;;;;45.25;18.63;;;;;;;;;;5037476;28;20021;-92
2021/11/20 08:50:29;;;;;;;54.58;19.33;;;;;;;;;;5036608;28;20025;-92
2021/11/20 08:52:55;;;;;;;42.40;17.40;;;;;;;;;;5037307;28;20048;-91
2021/11/20 08:55:26;;;;;;;37.47;15.73;;;;;;;;;;5037474;28;20426;-92
2021/11/20 08:57:53;;;;;;;31.02;12.43;;;;;;;;;;5041802;28;20416;-94
2021/11/20 09:00:22;;;;;;;61.08;24.25;;;;;;;;;;5040378;28;20041;-94
2021/11/20 09:02:51;;;;;;;20.90;13.80;;;;;;;;;;5040472;28;20364;-95
2021/11/20 09:05:26;;;;;;;17.77;11.98;;;;;;;;;;5041209;28;20071;-94
2021/11/20 09:08:11;;;;;;;14.07;10.20;;;;;;;;;;5041430;28;20026;-95
2021/11/20 09:10:46;;;;;;;14.95;11.15;;;;;;;;;;5040217;28;20045;-95
2021/11/20 09:13:30;;;;;;;14.15;10.85;;;;;;;;;;5040089;28;20029;-94
2021/11/20 09:16:01;;;;;;;19.80;13.00;;;;;;;;;;5040228;28;20067;-95
2021/11/20 09:18:29;;;;;;;19.33;12.60;;;;;;;;;;5040191;28;20033;-95
2021/11/20 09:20:55;;;;;;;19.10;12.20;;;;;;;;;;5041305;28;20026;-94
2021/11/20 09:23:22;;;;;;;21.13;12.30;;;;;;;;;;5040004;28;20029;-96
2021/11/20 09:25:48;;;;;;;21.13;10.95;;;;;;;;;;5040028;28;20039;-95
2021/11/20 09:28:15;;;;;;;17.88;11.07;;;;;;;;;;5039857;28;20036;-95
2021/11/20 09:30:43;;;;;;;16.90;10.52;;;;;;;;;;5041179;28;20037;-96
2021/11/20 09:33:09;;;;;;;16.15;10.73;;;;;;;;;;5039856;28;20029;-95
2021/11/20 09:35:36;;;;;;;18.42;11.82;;;;;;;;;;5040693;28;20017;-96
2021/11/20 09:41:11;;;;;;;16.30;10.15;;;;;;;;;;5040807;28;20056;-94
2021/11/20 09:43:38;;;;;;;12.87;9.83;;;;;;;;;;5040821;28;20031;-95
2021/11/20 09:46:13;;;;;;;15.05;9.40;;;;;;;;;;5039702;28;20254;-95
2021/11/20 09:48:41;;;;;;;12.90;9.32;;;;;;;;;;5040423;28;20116;-95
2021/11/20 09:51:10;;;;;;;15.30;10.45;;;;;;;;;;5040710;28;20030;-96
2021/11/20 09:53:36;;;;;;;13.88;10.07;;;;;;;;;;5039468;28;20056;-95
2021/11/20 09:56:10;;;;;;;14.15;10.05;;;;;;;;;;5040166;28;20454;-95
2021/11/20 09:58:41;;;;;;;14.10;9.50;;;;;;;;;;5040274;28;20052;-94
2021/11/20 10:01:25;;;;;;;13.55;9.38;;;;;;;;;;5040532;28;20041;-94
2021/11/20 10:04:04;;;;;;;15.45;10.27;;;;;;;;;;5040369;28;20053;-95
2021/11/20 10:06:32;;;;;;;13.55;9.80;;;;;;;;;;5040494;28;20412;-95
2021/11/20 10:09:07;;;;;;;18.45;10.75;;;;;;;;;;5038009;28;20025;-95
2021/11/20 10:11:46;;;;;;;17.23;10.73;;;;;;;;;;5039119;28;20076;-94
2021/11/20 10:14:21;;;;;;;19.73;12.30;;;;;;;;;;5039214;28;20052;-93
2021/11/20 10:16:49;;;;;;;16.55;10.90;;;;;;;;;;5039821;28;20033;-93
2021/11/20 10:19:15;;;;;;;16.02;10.02;;;;;;;;;;5039276;28;20037;-94
2021/11/20 10:21:45;;;;;;;14.63;9.68;;;;;;;;;;5039437;28;20037;-93
2021/11/20 10:24:17;;;;;;;14.88;9.75;;;;;;;;;;5039877;28;20029;-95
2021/11/20 10:26:43;;;;;;;14.82;10.90;;;;;;;;;;5040059;28;20017;-89
2021/11/20 10:29:24;;;;;;;17.25;12.05;;;;;;;;;;5038651;28;20036;-91
2021/11/20 10:32:03;;;;;;;15.80;12.30;;;;;;;;;;5038720;28;20034;-91
2021/11/20 10:34:35;;;;;;;17.23;13.45;;;;;;;;;;5038608;28;20156;-90
2021/11/20 10:37:01;;;;;;;;;;;;;;;;;;5039023;28;20034;-91
2021/11/20 10:39:27;;;;;;;17.60;11.80;;;;;;;;;;5038716;28;19909;-91
2021/11/20 10:41:53;;;;;;;15.23;10.70;;;;;;;;;;5038774;28;20041;-92
2021/11/20 10:44:19;;;;;;;13.25;9.57;;;;;;;;;;5039562;28;20025;-91
2021/11/20 10:47:10;;;;;;;18.55;11.00;;;;;;;;;;5039292;28;20021;-91
2021/11/20 10:49:45;;;;;;;20.10;12.07;;;;;;;;;;5035625;28;20037;-91
2021/11/20 10:52:11;;;;;;;17.10;11.73;;;;;;;;;;5038376;28;20091;-90
2021/11/20 10:54:47;;;;;;;20.05;12.05;;;;;;;;;;5039477;28;20311;-91
2021/11/20 10:57:32;;;;;;;17.42;10.93;;;;;;;;;;5038324;28;20032;-91
2021/11/20 11:00:08;;;;;;;20.65;12.10;;;;;;;;;;5039488;28;20084;-91
2021/11/20 11:02:44;;;;;;;39.47;26.38;;;;;;;;;;5038157;28;20462;-91
2021/11/20 11:05:22;;;;;;;15.90;12.10;;;;;;;;;;5038381;28;20037;-91
2021/11/20 11:10:54;;;;;;;17.85;11.18;;;;;;;;;;5038723;28;20040;-92
2021/11/20 11:13:43;;;;;;;15.00;10.80;;;;;;;;;;5039045;28;20400;-91
2021/11/20 11:16:15;;;;;;;19.85;11.80;;;;;;;;;;5037962;28;20029;-91
2021/11/20 11:18:44;;;;;;;17.98;10.77;;;;;;;;;;5037783;28;20066;-91
2021/11/20 11:21:28;;;;;;;16.70;10.73;;;;;;;;;;5038744;28;20056;-91
2021/11/20 11:24:18;;;;;;;15.15;9.38;;;;;;;;;;5038571;28;20036;-91
2021/11/20 11:27:04;;;;;;;15.73;10.18;;;;;;;;;;5017159;28;20030;-91
2021/11/20 11:29:36;;;;;;;16.10;10.45;;;;;;;;;;4958693;29;20045;-90
2021/11/20 11:32:04;;;;;;;30.85;13.38;;;;;;;;;;4958719;29;20039;-92
2021/11/20 11:34:33;;;;;;;36.92;15.35;;;;;;;;;;4958753;29;20027;-90
2021/11/20 11:37:19;;;;;;;55.63;21.00;;;;;;;;;;4958710;29;20038;-91
2021/11/20 11:39:59;;;;;;;37.78;18.05;;;;;;;;;;4958673;29;20024;-85
2021/11/20 11:42:32;;;;;;;22.40;12.63;;;;;;;;;;4958422;29;20031;-92
2021/11/20 11:45:03;;;;;;;21.67;11.98;;;;;;;;;;4942313;29;20061;-91
2021/11/20 11:47:35;;;;;;;29.13;15.40;;;;;;;;;;4958468;29;20039;-90
2021/11/20 11:50:33;;;;;;;29.45;16.33;;;;;;;;;;4942439;29;20122;-92
2021/11/20 11:52:59;;;;;;;24.40;14.50;;;;;;;;;;4939044;29;20043;-91
2021/11/20 11:55:25;;;;;;;20.17;12.35;;;;;;;;;;4939289;29;20035;-91
2021/11/20 11:58:11;;;;;;;21.67;13.20;;;;;;;;;;4939066;29;20113;-91
2021/11/20 12:00:44;;;;;;;13.68;10.00;;;;;;;;;;4882526;29;20041;-91
2021/11/20 12:03:15;;;;;;;20.88;11.50;;;;;;;;;;4887404;29;20518;-92
2021/11/20 12:05:46;;;;;;;21.55;13.35;;;;;;;;;;4901169;29;20442;-91
2021/11/20 12:08:12;;;;;;;32.08;17.83;;;;;;;;;;4885517;29;20048;-91
2021/11/20 12:10:52;;;;;;;17.17;11.25;;;;;;;;;;4900857;29;20048;-91
2021/11/20 12:13:37;;;;;;;16.40;9.88;;;;;;;;;;4901084;29;20029;-91
2021/11/20 12:16:22;;;;;;;13.65;9.27;;;;;;;;;;4885599;29;20553;-92
2021/11/20 12:18:52;;;;;;;14.25;9.50;;;;;;;;;;4885482;29;20335;-91
2021/11/20 12:21:26;;;;;;;14.07;9.48;;;;;;;;;;4885289;29;20044;-92
2021/11/20 12:23:58;;;;;;;11.55;8.57;;;;;;;;;;4900876;29;20459;-92
2021/11/20 12:26:33;;;;;;;16.35;8.40;;;;;;;;;;4900942;29;20056;-91
2021/11/20 12:29:18;;;;;;;10.88;7.95;;;;;;;;;;4953267;28;20035;-91
2021/11/20 12:31:54;;;;;;;12.70;8.38;;;;;;;;;;4976255;28;20069;-92
2021/11/20 12:34:34;;;;;;;14.07;10.05;;;;;;;;;;4977349;28;20199;-92
2021/11/20 12:43:13;;;;;;;11.73;8.40;;;;;;;;;;5037676;28;20083;-92
2021/11/20 12:45:58;;;;;;;13.23;8.60;;;;;;;;;;5036777;28;20029;-92
2021/11/20 12:48:42;;;;;;;16.13;9.98;;;;;;;;;;5036699;28;20034;-91
2021/11/20 12:51:10;;;;;;;18.10;11.18;;;;;;;;;;5036649;28;20041;-92
2021/11/20 12:53:36;;;;;;;17.13;10.30;;;;;;;;;;5037508;28;20086;-90
2021/11/20 12:56:05;;;;;;;17.48;10.68;;;;;;;;;;5037670;28;20022;-92
2021/11/20 12:58:34;;;;;;;13.85;9.45;;;;;;;;;;5036425;28;20044;-91
2021/11/20 13:01:00;;;;;;;14.73;10.07;;;;;;;;;;5036420;28;20026;-92
2021/11/20 13:03:26;;;;;;;22.40;12.70;;;;;;;;;;5037205;28;20108;-90
2021/11/20 13:06:12;;;;;;;24.83;12.13;;;;;;;;;;5036403;28;20018;-92
2021/11/20 13:11:49;;;;;;;20.17;11.13;;;;;;;;;;5033925;28;20432;-92
2021/11/20 13:14:15;;;;;;;29.20;14.60;;;;;;;;;;5037380;28;20038;-93
2021/11/20 13:16:41;;;;;;;30.55;13.48;;;;;;;;;;5037534;28;20030;-92
2021/11/20 13:19:07;;;;;;;24.02;12.57;;;;;;;;;;5037454;28;20030;-92
2021/11/20 13:21:36;;;;;;;18.95;11.00;;;;;;;;;;5037266;28;20495;-93
2021/11/20 13:24:07;;;;;;;28.73;14.80;;;;;;;;;;5036415;28;20041;-93
2021/11/20 13:26:33;;;;;;;22.35;13.57;;;;;;;;;;5037155;28;20485;-93
2021/11/20 13:29:00;;;;;;;20.55;12.82;;;;;;;;;;5036406;28;20411;-93
2021/11/20 13:31:34;;;;;;;21.17;12.90;;;;;;;;;;5036819;28;20375;-93
2021/11/20 13:34:01;;;;;;;28.30;17.27;;;;;;;;;;5037187;28;20048;-94
2021/11/20 13:36:27;;;;;;;29.60;19.33;;;;;;;;;;5037133;28;20037;-92
2021/11/20 13:39:30;;;;;;;27.05;16.38;;;;;;;;;;5036720;28;20025;-94
2021/11/20 13:41:57;;;;;;;49.30;20.33;;;;;;;;;;5037506;28;20026;-93
2021/11/20 13:44:24;;;;;;;64.00;22.23;;;;;;;;;;5040673;28;20033;-93
2021/11/20 13:46:54;;;;;;;89.65;30.90;;;;;;;;;;5040451;28;20017;-92
2021/11/20 13:49:21;;;;;;;93.18;30.88;;;;;;;;;;5040108;28;20057;-93
2021/11/20 13:51:47;;;;;;;100.85;33.70;;;;;;;;;;5040316;28;20053;-94
2021/11/20 13:54:16;;;;;;;110.00;36.58;;;;;;;;;;5040494;28;20100;-94
2021/11/20 13:56:44;;;;;;;110.68;37.88;;;;;;;;;;5039661;28;20044;-94
2021/11/20 13:59:14;;;;;;;136.77;64.90;;;;;;;;;;5040334;28;20029;-95
2021/11/20 14:01:43;;;;;;;113.93;67.00;;;;;;;;;;5039278;28;20052;-94
2021/11/20 14:04:09;;;;;;;71.07;46.08;;;;;;;;;;5039041;28;20045;-93
2021/11/20 14:06:35;;;;;;;59.67;40.75;;;;;;;;;;5039862;28;20424;-94
2021/11/20 14:12:08;;;;;;;47.17;34.47;;;;;;;;;;5033742;28;20502;-95
2021/11/20 14:14:34;;;;;;;37.30;25.73;;;;;;;;;;5040182;28;20038;-95
2021/11/20 14:17:13;;;;;;;31.30;19.58;;;;;;;;;;5038764;28;20100;-94
2021/11/20 14:19:40;;;;;;;29.25;19.60;;;;;;;;;;5038997;28;20408;-95
2021/11/20 14:22:08;;;;;;;23.73;17.58;;;;;;;;;;5039881;28;20026;-93
2021/11/20 14:30:46;;;;;;;80.72;38.25;;;;;;;;;;5039893;28;20072;-94
2021/11/20 14:33:17;;;;;;;79.03;37.55;;;;;;;;;;5038764;28;20026;-94
2021/11/20 14:36:01;;;;;;;60.28;29.90;;;;;;;;;;5040012;28;20105;-94
2021/11/20 14:41:34;;;;;;;65.40;32.05;;;;;;;;;;5039713;28;20075;-94
2021/11/20 14:44:01;;;;;;;68.15;30.70;;;;;;;;;;5039299;28;20028;-94
2021/11/20 14:46:27;;;;;;;51.03;26.45;;;;;;;;;;5039598;28;20053;-94
2021/11/20 14:49:00;;;;;;;52.58;25.67;;;;;;;;;;5039574;28;20037;-95
2021/11/20 14:51:34;;;;;;;40.97;23.08;;;;;;;;;;5039743;28;20020;-94
2021/11/20 14:57:06;;;;;;;38.65;19.38;;;;;;;;;;5040226;28;20059;-95
2021/11/20 14:59:40;;;;;;;34.08;19.80;;;;;;;;;;5038934;28;20347;-95
2021/11/20 15:02:06;;;;;;;42.58;22.70;;;;;;;;;;5038749;28;20026;-93
2021/11/20 15:04:32;;;;;;;46.53;21.60;;;;;;;;;;5042256;28;20315;-96
2021/11/20 15:06:58;;;;;;;39.83;23.23;;;;;;;;;;5038609;28;20037;-94
2021/11/20 15:12:28;;;;;;;40.25;25.10;;;;;;;;;;5042599;28;20041;-94
2021/11/20 15:14:54;;;;;;;38.30;23.42;;;;;;;;;;5040800;28;20030;-95
2021/11/20 15:17:23;;;;;;;42.30;23.52;;;;;;;;;;5041396;28;20057;-95
2021/11/20 15:19:49;;;;;;;54.53;28.02;;;;;;;;;;5043070;28;20025;-94
2021/11/20 15:22:15;;;;;;;55.85;28.15;;;;;;;;;;5043080;28;20038;-96
2021/11/20 15:24:41;;;;;;;66.30;38.75;;;;;;;;;;5045232;28;20029;-95
2021/11/20 15:27:08;;;;;;;253.88;109.20;;;;;;;;;;5040503;28;20030;-95
2021/11/20 15:29:34;;;;;;;130.18;62.60;;;;;;;;;;5039728;28;20029;-95
2021/11/20 15:32:00;;;;;;;69.20;37.38;;;;;;;;;;5038196;28;20038;-95
2021/11/20 15:34:27;;;;;;;61.42;33.10;;;;;;;;;;5038565;28;20079;-96
2021/11/20 15:36:55;;;;;;;49.78;29.45;;;;;;;;;;5042638;28;20029;-96
2021/11/20 15:42:25;;;;;;;42.42;26.85;;;;;;;;;;5048559;28;20052;-96
2021/11/20 15:44:51;;;;;;;49.03;30.85;;;;;;;;;;5043012;28;20041;-95
2021/11/20 15:47:18;;;;;;;50.55;35.20;;;;;;;;;;5026697;28;20088;-95